RKSO/OSN METAR and TAF weather

Enter ICAO airport designator
Station Type Date Time Source
RKSO METAR 2020/04/01 21:58 UTC NOAA

RKSO 012158Z 06004KT 7SM CLR 01/00 A3020 RMK AO2A SLP230 T00050003 $


Station Type Date Time Source
RKSO Decoded METAR 2020/04/01 21:58 UTC NOAA

Osan Ab, Korea, South (RKSO) 37-06N 127-02E 12M
Apr 01, 2020 - 05:58 PM EDT / 2020.04.01 2158 UTC
Wind: from the ENE (060 degrees) at 5 MPH (4 KT):0
Visibility: 7 mile(s):0
Sky conditions: clear
Temperature: 32.9 F (0.5 C)
Windchill: 28 F (-2 C):1
Dew Point: 32.5 F (0.3 C)
Relative Humidity: 98%
Pressure (altimeter): 30.2 in. Hg (1022 hPa)
ob: RKSO 012158Z 06004KT 7SM CLR 01/00 A3020 RMK AO2A SLP230 T00050003
cycle: 22

Station Type Date Time Source
RKSO TAF 2020/04/01 17:03 UTC NOAA

TAF TAF RKSO 011700Z 0117/0223 VRB06KT 9999 SKC 510053 QNH3012INS
BECMG 0120/0121 VRB06KT 9999 FEW190 QNH3016INS
BECMG 0202/0203 30012KT 9999 FEW180 QNH3018INS TX13/0205Z TN01/0121Z

Example: see airport list